الصفحة الرئيسية
METAR-TAF:

METAR-TAF

مطار :

Broken Hill, أستراليا

دائرة عرض: 32-00-06S, خط طول: 141-28-18E, ارتفاع: 292 متر

مراقبة الطقس الحالي

تاريخ ووقت الإصدار 25 دقيقة قبل الساعة 21:00UTC
ريح 8 عقدة من الشرق/الشمال الشرقي
درجة الحرارة 6°درجة مئوية
الرطوبة 81%
ضغط 1022 hPa
الرؤية 10 كم أو أكثر

METAR: YBHI 252100Z AUTO 06008KT 9999 // NCD 06/03 Q1022

زمن: 06:55 (21:25 UTC)


TAF: مفقودة

أرصاد الطقس والتوقعات من أكثر من 4000 مطار (تقارير الطقس للمطار METAR والتنبؤ بالطقس بالمطارTAF).

المحطات المتاحة هي النقط الصفراء والحمراء على الخريطة.

حرك المؤشر فوق النقطة لمعرفة اسم المحطة.

ثم انقر لمعرفة أرصاد وتوقعات الطقس.

لتغيير الخارطة: اضغط على الأزرار الخضراء مع رمز الصليب الأسود للتكبير. على الزر الأخضر مع شرطة للتصغير، أو على الأسهم الخضراء للخرائط المجاورة.


METAR-TAF: